createdAt,value
2023-02-22T00:01:35.955Z,99031.88
2023-02-22T00:04:07.139Z,99026.72
2023-02-22T00:06:34.142Z,99024.41
2023-02-22T00:09:02.641Z,99025.81
2023-02-22T00:11:31.743Z,99017.75
2023-02-22T00:13:58.834Z,99025.47
2023-02-22T00:16:26.722Z,99013.84
2023-02-22T00:18:53.604Z,99021.06
2023-02-22T00:21:20.941Z,99020.81
2023-02-22T00:23:48.580Z,99016.00
2023-02-22T00:26:21.188Z,99014.31
2023-02-22T00:28:49.632Z,99013.53
2023-02-22T00:31:16.838Z,99015.38
2023-02-22T00:33:44.010Z,99016.09
2023-02-22T00:36:12.735Z,99016.66
2023-02-22T00:38:40.930Z,99011.53
2023-02-22T00:41:07.638Z,99011.22
2023-02-22T00:43:34.807Z,99013.22
2023-02-22T00:46:01.569Z,99005.34
2023-02-22T00:48:28.752Z,99007.59
2023-02-22T00:50:55.850Z,99010.47
2023-02-22T00:53:24.102Z,99011.00
2023-02-22T00:55:51.437Z,99007.16
2023-02-22T00:58:18.800Z,99006.03
2023-02-22T01:00:46.042Z,99001.31
2023-02-22T01:03:15.317Z,99000.50
2023-02-22T01:05:42.089Z,99003.19
2023-02-22T01:08:10.534Z,98989.13
2023-02-22T01:10:38.187Z,98994.16
2023-02-22T01:13:09.485Z,98994.22
2023-02-22T01:15:38.665Z,98990.13
2023-02-22T01:18:05.677Z,98991.66
2023-02-22T01:20:33.100Z,98992.94
2023-02-22T01:23:03.669Z,98995.00
2023-02-22T01:25:31.659Z,99002.03
2023-02-22T01:28:00.357Z,98992.97
2023-02-22T01:30:30.004Z,98993.53
2023-02-22T01:32:56.949Z,98991.06
2023-02-22T01:35:28.055Z,98982.25
2023-02-22T01:37:55.465Z,98980.22
2023-02-22T01:40:29.969Z,98975.84
2023-02-22T01:43:00.023Z,98985.59
2023-02-22T01:45:59.791Z,98983.94
2023-02-22T01:48:37.572Z,98972.66
2023-02-22T01:51:11.178Z,98973.09
2023-02-22T01:53:43.669Z,98974.63
2023-02-22T01:56:10.765Z,98970.72
2023-02-22T01:58:39.362Z,98967.13
2023-02-22T02:01:07.055Z,98965.78
2023-02-22T02:03:35.763Z,98969.81
2023-02-22T02:06:05.795Z,98963.09
2023-02-22T02:08:42.645Z,98962.22
2023-02-22T02:11:10.145Z,98956.78
2023-02-22T02:13:37.142Z,98962.75
2023-02-22T02:16:04.140Z,98955.97
2023-02-22T02:18:32.883Z,98946.97
2023-02-22T02:21:57.069Z,98956.97
2023-02-22T02:24:42.094Z,98943.66
2023-02-22T02:27:17.195Z,98949.88
2023-02-22T02:30:22.710Z,98950.19
2023-02-22T02:32:53.346Z,98944.53
2023-02-22T02:36:09.395Z,98952.28
2023-02-22T02:39:18.091Z,98943.19
2023-02-22T02:41:48.498Z,98942.94
2023-02-22T02:44:22.734Z,98936.03
2023-02-22T02:46:56.389Z,98937.66
2023-02-22T02:49:30.068Z,98939.06
2023-02-22T02:51:57.287Z,98939.44
2023-02-22T02:54:24.867Z,98935.59
2023-02-22T02:56:51.691Z,98932.00
2023-02-22T02:59:29.353Z,98929.66
2023-02-22T03:02:20.260Z,98926.34
2023-02-22T03:05:11.843Z,98921.94
2023-02-22T03:08:04.699Z,98913.34
2023-02-22T03:10:50.570Z,98916.38
2023-02-22T03:14:05.590Z,98913.91
2023-02-22T03:16:45.795Z,98913.34
2023-02-22T03:19:28.454Z,98905.78
2023-02-22T03:22:25.210Z,98908.13
2023-02-22T03:24:59.448Z,98900.09
2023-02-22T03:27:26.052Z,98913.31
2023-02-22T03:29:55.298Z,98902.41
2023-02-22T03:32:27.757Z,98906.13
2023-02-22T03:35:01.127Z,98909.41
2023-02-22T03:37:30.689Z,98905.69
2023-02-22T03:40:00.136Z,98895.91
2023-02-22T03:42:33.343Z,98902.09
2023-02-22T03:45:02.930Z,98902.88
2023-02-22T03:47:46.481Z,98905.78
2023-02-22T03:50:17.564Z,98904.13
2023-02-22T03:52:44.941Z,98904.94
2023-02-22T03:55:12.378Z,98908.28
2023-02-22T03:57:41.961Z,98901.75
2023-02-22T04:00:10.949Z,98916.25
2023-02-22T04:02:37.669Z,98911.69
2023-02-22T04:05:04.604Z,98910.69
2023-02-22T04:07:31.402Z,98911.00
2023-02-22T04:09:58.051Z,98915.13
2023-02-22T04:12:24.914Z,98903.69
2023-02-22T04:14:51.584Z,98902.72
2023-02-22T04:17:18.226Z,98901.63
2023-02-22T04:19:46.021Z,98908.28
2023-02-22T04:22:12.874Z,98907.00
2023-02-22T04:24:39.658Z,98904.13
2023-02-22T04:27:06.739Z,98898.47
2023-02-22T04:29:33.580Z,98899.28
2023-02-22T04:32:06.136Z,98893.47
2023-02-22T04:34:35.218Z,98893.91
2023-02-22T04:37:02.368Z,98893.31
2023-02-22T04:39:29.325Z,98885.84
2023-02-22T04:41:56.607Z,98896.63
2023-02-22T04:44:23.353Z,98893.00
2023-02-22T04:46:50.009Z,98886.69
2023-02-22T04:49:16.756Z,98886.16
2023-02-22T04:51:43.526Z,98885.84
2023-02-22T04:54:10.822Z,98888.34
2023-02-22T04:56:37.829Z,98891.16
2023-02-22T04:59:04.519Z,98885.28
2023-02-22T05:01:35.785Z,98885.16
2023-02-22T05:04:04.001Z,98888.19
2023-02-22T05:06:30.977Z,98876.53
2023-02-22T05:08:57.884Z,98882.63
2023-02-22T05:11:24.593Z,98884.03
2023-02-22T05:13:51.397Z,98884.59
2023-02-22T05:16:18.628Z,98878.16
2023-02-22T05:18:47.621Z,98885.41
2023-02-22T05:21:15.035Z,98878.63
2023-02-22T05:23:42.060Z,98878.91
2023-02-22T05:26:11.458Z,98878.38
2023-02-22T05:28:38.450Z,98874.78
2023-02-22T05:31:06.273Z,98876.97
2023-02-22T05:33:33.418Z,98877.25
2023-02-22T05:36:02.823Z,98876.31
2023-02-22T05:38:29.771Z,98869.47
2023-02-22T05:40:57.179Z,98864.72
2023-02-22T05:43:23.833Z,98868.06
2023-02-22T05:48:31.966Z,98863.41
2023-02-22T05:50:59.012Z,98869.88
2023-02-22T05:53:26.046Z,98864.22
2023-02-22T05:55:52.817Z,98854.88
2023-02-22T05:58:19.598Z,98867.50
2023-02-22T06:00:46.526Z,98864.47
2023-02-22T06:03:14.020Z,98866.56
2023-02-22T06:05:40.761Z,98859.97
2023-02-22T06:08:07.990Z,98867.41
2023-02-22T06:10:35.179Z,98859.13
2023-02-22T06:13:02.791Z,98867.28
2023-02-22T06:15:29.583Z,98859.75
2023-02-22T06:17:56.999Z,98867.19
2023-02-22T06:20:25.644Z,98861.50
2023-02-22T06:22:55.139Z,98866.00
2023-02-22T06:25:24.382Z,98870.44
2023-02-22T06:27:51.639Z,98866.69
2023-02-22T06:30:21.016Z,98871.66
2023-02-22T06:32:47.782Z,98864.06
2023-02-22T06:35:15.175Z,98878.09
2023-02-22T06:37:42.110Z,98866.69
2023-02-22T06:40:11.621Z,98872.94
2023-02-22T06:42:39.338Z,98871.22
2023-02-22T06:45:08.019Z,98870.53
2023-02-22T06:47:38.692Z,98866.16
2023-02-22T06:50:06.054Z,98868.66
2023-02-22T06:52:33.132Z,98873.38
2023-02-22T06:55:00.017Z,98877.75
2023-02-22T06:57:26.994Z,98872.66
2023-02-22T06:59:53.797Z,98875.25
2023-02-22T07:02:20.405Z,98878.94
2023-02-22T07:04:47.380Z,98882.56
2023-02-22T07:07:14.286Z,98877.78
2023-02-22T07:09:41.018Z,98891.19
2023-02-22T07:12:08.157Z,98892.16
2023-02-22T07:14:34.846Z,98884.63
2023-02-22T07:17:01.694Z,98889.53
2023-02-22T07:19:28.401Z,98891.88
2023-02-22T07:21:59.563Z,98891.56
2023-02-22T07:24:28.685Z,98888.34
2023-02-22T07:26:55.844Z,98886.34
2023-02-22T07:29:25.426Z,98889.44
2023-02-22T07:31:52.256Z,98897.53
2023-02-22T07:34:19.118Z,98902.97
2023-02-22T07:36:45.910Z,98897.41
2023-02-22T07:39:12.700Z,98897.75
2023-02-22T07:41:39.775Z,98896.06
2023-02-22T07:44:06.675Z,98902.13
2023-02-22T07:46:34.207Z,98892.50
2023-02-22T07:49:01.588Z,98900.81
2023-02-22T07:51:28.296Z,98898.09
2023-02-22T07:53:55.080Z,98891.44
2023-02-22T07:56:21.809Z,98895.34
2023-02-22T07:58:48.542Z,98898.75
2023-02-22T08:01:19.115Z,98897.34
2023-02-22T08:03:47.778Z,98904.66
2023-02-22T08:06:14.684Z,98894.91
2023-02-22T08:08:41.437Z,98890.91
2023-02-22T08:11:08.718Z,98890.31
2023-02-22T08:13:37.384Z,98893.47
2023-02-22T08:16:04.258Z,98891.00
2023-02-22T08:18:30.969Z,98887.81
2023-02-22T08:20:57.795Z,98887.03
2023-02-22T08:23:26.107Z,98891.31
2023-02-22T08:25:53.575Z,98890.38
2023-02-22T08:28:23.709Z,98889.28
2023-02-22T08:30:51.644Z,98885.44
2023-02-22T08:33:20.119Z,98889.09
2023-02-22T08:35:49.945Z,98878.06
2023-02-22T08:38:29.545Z,98875.59
2023-02-22T08:40:56.606Z,98880.66
2023-02-22T08:43:23.546Z,98878.06
2023-02-22T08:45:52.288Z,98879.22
2023-02-22T08:48:20.239Z,98874.56
2023-02-22T08:50:47.248Z,98868.56
2023-02-22T08:53:15.135Z,98866.41
2023-02-22T08:55:42.230Z,98868.75
2023-02-22T08:58:12.514Z,98875.09
2023-02-22T09:00:40.810Z,98870.97
2023-02-22T09:03:10.266Z,98872.06
2023-02-22T09:05:36.954Z,98869.41
2023-02-22T09:08:04.252Z,98863.09
2023-02-22T09:10:33.794Z,98864.09
2023-02-22T09:13:04.218Z,98869.13
2023-02-22T09:15:32.893Z,98863.66
2023-02-22T09:18:00.327Z,98870.03
2023-02-22T09:20:27.796Z,98857.88
2023-02-22T09:22:55.391Z,98854.53
2023-02-22T09:25:23.299Z,98853.69
2023-02-22T09:27:51.828Z,98849.78
2023-02-22T09:30:33.553Z,98850.06
2023-02-22T09:33:05.991Z,98846.22
2023-02-22T09:35:36.592Z,98847.16
2023-02-22T09:38:06.566Z,98846.50
2023-02-22T09:40:36.984Z,98845.91
2023-02-22T09:43:36.396Z,98840.34
2023-02-22T09:46:23.513Z,98842.16
2023-02-22T09:49:07.459Z,98838.81
2023-02-22T09:52:02.538Z,98829.44
2023-02-22T09:54:38.826Z,98830.72
2023-02-22T09:57:12.360Z,98830.44
2023-02-22T09:59:44.835Z,98831.56
2023-02-22T10:02:32.828Z,98821.78
2023-02-22T10:05:12.109Z,98819.94
2023-02-22T10:07:48.118Z,98811.84
2023-02-22T10:10:17.858Z,98808.53
2023-02-22T10:13:03.623Z,98803.44
2023-02-22T10:15:43.277Z,98810.59
2023-02-22T10:18:33.014Z,98811.41
2023-02-22T10:21:23.731Z,98806.16
2023-02-22T10:24:18.273Z,98799.63
2023-02-22T10:26:47.113Z,98792.97
2023-02-22T10:29:33.194Z,98788.09
2023-02-22T10:32:05.576Z,98785.13
2023-02-22T10:34:39.921Z,98785.19
2023-02-22T10:37:25.790Z,98787.16
2023-02-22T10:39:57.823Z,98781.59
2023-02-22T10:42:27.207Z,98777.56
2023-02-22T10:44:54.071Z,98768.91
2023-02-22T10:47:22.085Z,98767.47
2023-02-22T10:49:52.615Z,98769.22
2023-02-22T10:52:29.203Z,98764.56
2023-02-22T10:55:13.724Z,98763.72
2023-02-22T10:57:42.642Z,98764.19
2023-02-22T11:00:46.663Z,98771.25
2023-02-22T11:03:18.944Z,98762.69
2023-02-22T11:05:46.082Z,98758.94
2023-02-22T11:08:26.472Z,98759.06
2023-02-22T11:10:58.138Z,98768.00
2023-02-22T11:13:33.980Z,98751.19
2023-02-22T11:16:03.668Z,98756.38
2023-02-22T11:18:34.271Z,98749.72
2023-02-22T11:21:10.459Z,98752.06
2023-02-22T11:23:39.931Z,98743.41
2023-02-22T11:26:08.502Z,98740.66
2023-02-22T11:28:35.828Z,98731.47
2023-02-22T11:31:23.477Z,98736.03
2023-02-22T11:33:59.074Z,98727.06
2023-02-22T11:36:41.138Z,98727.59
2023-02-22T11:39:28.986Z,98722.88
2023-02-22T11:41:56.772Z,98716.69
2023-02-22T11:44:25.225Z,98712.91
2023-02-22T11:46:56.063Z,98709.97
2023-02-22T11:49:33.842Z,98705.84
2023-02-22T11:52:26.146Z,98703.50
2023-02-22T11:55:36.332Z,98685.31
2023-02-22T11:58:50.082Z,98685.84
2023-02-22T12:01:23.923Z,98687.63
2023-02-22T12:04:24.428Z,98684.75
2023-02-22T12:07:06.435Z,98688.69
2023-02-22T12:09:49.149Z,98679.13
2023-02-22T12:12:37.730Z,98683.56
2023-02-22T12:15:24.326Z,98679.31
2023-02-22T12:18:18.626Z,98672.88
2023-02-22T12:21:02.487Z,98670.38
2023-02-22T12:23:37.728Z,98671.03
2023-02-22T12:26:11.721Z,98673.97
2023-02-22T12:28:41.428Z,98663.59
2023-02-22T12:31:34.076Z,98662.59
2023-02-22T12:34:28.895Z,98663.03
2023-02-22T12:36:59.939Z,98666.28
2023-02-22T12:40:24.162Z,98663.81
2023-02-22T12:42:57.873Z,98660.31
2023-02-22T12:45:27.307Z,98660.97
2023-02-22T12:48:08.270Z,98660.47
2023-02-22T12:50:35.391Z,98662.63
2023-02-22T12:53:26.077Z,98662.38
2023-02-22T12:55:56.674Z,98658.88
2023-02-22T12:58:49.487Z,98660.22
2023-02-22T13:01:20.415Z,98661.53
2023-02-22T13:03:47.815Z,98651.97
2023-02-22T13:06:32.042Z,98655.75
2023-02-22T13:09:36.250Z,98645.66
2023-02-22T13:12:23.640Z,98642.00
2023-02-22T13:15:11.051Z,98641.19
2023-02-22T13:17:43.601Z,98634.22
2023-02-22T13:20:19.119Z,98634.03
2023-02-22T13:23:24.391Z,98638.34
2023-02-22T13:26:00.156Z,98635.16
2023-02-22T13:28:43.785Z,98631.22
2023-02-22T13:31:36.865Z,98632.50
2023-02-22T13:34:40.424Z,98624.34
2023-02-22T13:37:37.085Z,98628.06
2023-02-22T13:40:57.613Z,98629.88
2023-02-22T13:43:52.775Z,98619.13
2023-02-22T13:47:03.848Z,98625.22
2023-02-22T13:49:49.071Z,98618.75
2023-02-22T13:52:18.496Z,98615.34
2023-02-22T13:54:51.710Z,98613.19
2023-02-22T13:57:28.232Z,98612.88
2023-02-22T14:00:21.612Z,98613.66
2023-02-22T14:03:01.198Z,98613.94
2023-02-22T14:08:42.451Z,98605.25
2023-02-22T14:14:17.349Z,98610.66
2023-02-22T14:16:44.400Z,98607.69
2023-02-22T14:19:18.296Z,98608.03
2023-02-22T14:22:02.533Z,98604.22
2023-02-22T14:24:43.008Z,98607.31
2023-02-22T14:27:10.177Z,98606.31
2023-02-22T14:29:36.855Z,98599.06
2023-02-22T14:32:11.210Z,98601.53
2023-02-22T14:34:54.803Z,98596.75
2023-02-22T14:37:35.950Z,98592.81
2023-02-22T14:40:13.200Z,98590.38
2023-02-22T14:42:46.927Z,98591.13
2023-02-22T14:45:34.199Z,98588.19
2023-02-22T14:48:40.202Z,98590.94
2023-02-22T14:51:23.197Z,98576.06
2023-02-22T14:54:07.954Z,98581.91
2023-02-22T14:56:41.506Z,98578.25
2023-02-22T14:59:18.146Z,98577.25
2023-02-22T15:02:09.647Z,98571.97
2023-02-22T15:04:38.232Z,98573.25
2023-02-22T15:07:29.872Z,98579.88
2023-02-22T15:10:26.677Z,98577.63
2023-02-22T15:13:11.249Z,98572.50
2023-02-22T15:15:48.214Z,98568.38
2023-02-22T15:18:38.010Z,98566.03
2023-02-22T15:21:08.430Z,98567.56
2023-02-22T15:23:50.282Z,98566.16
2023-02-22T15:26:31.747Z,98555.66
2023-02-22T15:28:59.268Z,98559.47
2023-02-22T15:31:34.550Z,98558.19
2023-02-22T15:34:20.220Z,98554.53
2023-02-22T15:36:47.485Z,98549.72
2023-02-22T15:39:27.308Z,98556.31
2023-02-22T15:42:29.391Z,98546.66
2023-02-22T15:44:56.805Z,98545.03
2023-02-22T15:47:32.625Z,98547.50
2023-02-22T15:50:25.895Z,98542.09
2023-02-22T15:53:18.408Z,98543.63
2023-02-22T15:55:49.676Z,98537.34
2023-02-22T15:58:29.016Z,98534.69
2023-02-22T16:01:05.868Z,98541.69
2023-02-22T16:03:45.187Z,98534.78
2023-02-22T16:06:15.619Z,98535.94
2023-02-22T16:08:55.252Z,98542.41
2023-02-22T16:11:44.360Z,98532.22
2023-02-22T16:14:29.512Z,98540.00
2023-02-22T16:18:00.949Z,98539.75
2023-02-22T16:20:32.735Z,98533.97
2023-02-22T16:23:00.080Z,98528.41
2023-02-22T16:25:33.597Z,98531.06
2023-02-22T16:28:03.382Z,98527.00
2023-02-22T16:30:40.262Z,98540.31
2023-02-22T16:33:17.864Z,98537.72
2023-02-22T16:35:52.508Z,98545.66
2023-02-22T16:38:19.980Z,98554.91
2023-02-22T16:40:53.995Z,98553.75
2023-02-22T16:43:23.524Z,98558.69
2023-02-22T16:45:50.334Z,98552.28
2023-02-22T16:48:20.309Z,98561.53
2023-02-22T16:50:50.936Z,98560.03
2023-02-22T16:53:20.311Z,98557.41
2023-02-22T16:55:48.256Z,98563.16
2023-02-22T16:58:15.884Z,98561.19
2023-02-22T17:00:42.744Z,98564.50
2023-02-22T17:03:20.944Z,98568.28
2023-02-22T17:05:47.652Z,98572.88
2023-02-22T17:08:16.442Z,98576.66
2023-02-22T17:10:43.293Z,98573.34
2023-02-22T17:13:22.204Z,98578.63
2023-02-22T17:15:50.713Z,98579.59
2023-02-22T17:18:22.963Z,98575.28
2023-02-22T17:20:53.012Z,98584.47
2023-02-22T17:23:20.180Z,98580.84
2023-02-22T17:26:13.914Z,98584.44
2023-02-22T17:28:40.908Z,98580.06
2023-02-22T17:31:07.670Z,98580.69
2023-02-22T17:33:36.829Z,98581.84
2023-02-22T17:36:05.485Z,98584.91
2023-02-22T17:38:32.512Z,98588.28
2023-02-22T17:41:00.853Z,98592.94
2023-02-22T17:43:30.424Z,98587.34
2023-02-22T17:45:58.132Z,98585.84
2023-02-22T17:48:25.039Z,98599.97
2023-02-22T17:50:52.088Z,98594.22
2023-02-22T17:53:25.061Z,98593.69
2023-02-22T17:55:52.074Z,98593.66
2023-02-22T17:58:19.103Z,98600.16
2023-02-22T18:00:48.637Z,98596.63
2023-02-22T18:03:21.796Z,98591.72
2023-02-22T18:05:50.625Z,98596.47
2023-02-22T18:08:17.464Z,98595.72
2023-02-22T18:10:44.288Z,98600.78
2023-02-22T18:13:21.634Z,98595.91
2023-02-22T18:15:48.841Z,98597.94
2023-02-22T18:18:17.905Z,98594.94
2023-02-22T18:20:51.055Z,98601.53
2023-02-22T18:23:20.742Z,98596.38
2023-02-22T18:26:09.127Z,98598.16
2023-02-22T18:28:37.125Z,98606.47
2023-02-22T18:31:14.943Z,98605.63
2023-02-22T18:33:43.438Z,98600.56
2023-02-22T18:36:14.385Z,98602.94
2023-02-22T18:38:45.018Z,98603.19
2023-02-22T18:41:13.808Z,98604.88
2023-02-22T18:43:41.433Z,98606.41
2023-02-22T18:46:10.353Z,98603.31
2023-02-22T18:48:38.858Z,98606.25
2023-02-22T18:51:08.105Z,98599.53
2023-02-22T18:53:38.943Z,98603.34
2023-02-22T18:56:14.560Z,98601.88
2023-02-22T18:58:43.438Z,98601.38
2023-02-22T19:01:16.227Z,98607.31
2023-02-22T19:03:43.091Z,98602.47
2023-02-22T19:06:10.167Z,98612.25
2023-02-22T19:08:43.922Z,98604.69
2023-02-22T19:11:18.075Z,98612.94
2023-02-22T19:13:48.144Z,98615.34
2023-02-22T19:16:16.560Z,98614.81
2023-02-22T19:18:44.404Z,98610.38
2023-02-22T19:21:12.140Z,98609.41
2023-02-22T19:23:45.631Z,98612.75
2023-02-22T19:26:14.110Z,98610.72
2023-02-22T19:28:40.904Z,98615.94
2023-02-22T19:31:26.981Z,98619.97
2023-02-22T19:33:53.840Z,98616.38
2023-02-22T19:36:23.216Z,98607.84
2023-02-22T19:38:50.093Z,98615.59
2023-02-22T19:41:23.491Z,98619.44
2023-02-22T19:43:51.920Z,98610.31
2023-02-22T19:46:19.259Z,98604.41
2023-02-22T19:48:50.210Z,98608.81
2023-02-22T19:51:18.655Z,98613.53
2023-02-22T19:53:53.294Z,98606.09
2023-02-22T19:56:21.061Z,98611.59
2023-02-22T19:58:50.214Z,98613.91
2023-02-22T20:01:23.366Z,98607.84
2023-02-22T20:03:54.915Z,98609.81
2023-02-22T20:06:25.856Z,98614.88
2023-02-22T20:08:53.102Z,98612.69
2023-02-22T20:11:19.858Z,98619.88
2023-02-22T20:13:46.872Z,98617.94
2023-02-22T20:16:15.889Z,98618.81
2023-02-22T20:18:46.589Z,98620.16
2023-02-22T20:21:38.786Z,98621.00
2023-02-22T20:24:08.012Z,98626.66
2023-02-22T20:26:36.749Z,98622.38
2023-02-22T20:29:04.370Z,98630.09
2023-02-22T20:31:31.619Z,98628.44
2023-02-22T20:34:00.519Z,98626.38
2023-02-22T20:36:28.596Z,98630.94
2023-02-22T20:38:59.863Z,98633.69
2023-02-22T20:41:32.331Z,98632.28
2023-02-22T20:44:00.712Z,98627.59
2023-02-22T20:46:31.670Z,98631.19
2023-02-22T20:49:00.206Z,98628.56
2023-02-22T20:51:27.883Z,98631.19
2023-02-22T20:53:54.844Z,98627.88
2023-02-22T20:56:23.684Z,98630.91
2023-02-22T20:58:51.065Z,98636.94
2023-02-22T21:01:20.033Z,98631.25
2023-02-22T21:03:47.290Z,98629.72
2023-02-22T21:06:16.241Z,98633.34
2023-02-22T21:08:50.385Z,98633.34
2023-02-22T21:11:18.644Z,98637.63
2023-02-22T21:13:46.217Z,98630.06
2023-02-22T21:16:22.186Z,98635.03
2023-02-22T21:18:53.117Z,98625.13
2023-02-22T21:21:20.435Z,98638.88
2023-02-22T21:23:52.575Z,98635.59
2023-02-22T21:26:28.280Z,98630.78
2023-02-22T21:28:55.989Z,98631.75
2023-02-22T21:31:24.727Z,98634.78
2023-02-22T21:33:53.752Z,98634.75
2023-02-22T21:36:25.592Z,98627.06
2023-02-22T21:39:08.501Z,98628.56
2023-02-22T21:41:35.436Z,98623.19
2023-02-22T21:44:02.202Z,98621.97
2023-02-22T21:46:29.640Z,98627.75
2023-02-22T21:48:59.022Z,98617.53
2023-02-22T21:51:34.351Z,98624.16
2023-02-22T21:54:03.592Z,98621.84
2023-02-22T21:56:34.890Z,98618.25
2023-02-22T21:59:11.853Z,98617.69
2023-02-22T22:01:47.569Z,98613.28
2023-02-22T22:04:19.379Z,98621.00
2023-02-22T22:06:47.968Z,98610.94
2023-02-22T22:09:20.632Z,98620.03
2023-02-22T22:11:53.673Z,98613.41
2023-02-22T22:14:23.307Z,98610.25
2023-02-22T22:16:54.077Z,98612.69
2023-02-22T22:19:20.747Z,98609.91
2023-02-22T22:21:48.944Z,98616.78
2023-02-22T22:24:16.021Z,98615.44
2023-02-22T22:26:44.195Z,98614.47
2023-02-22T22:29:11.672Z,98612.81
2023-02-22T22:31:38.994Z,98614.72
2023-02-22T22:34:06.609Z,98615.44
2023-02-22T22:36:34.658Z,98615.94
2023-02-22T22:39:01.752Z,98620.06
2023-02-22T22:41:28.435Z,98611.00
2023-02-22T22:43:55.908Z,98617.84
2023-02-22T22:46:26.841Z,98620.63
2023-02-22T22:48:59.342Z,98616.38
2023-02-22T22:51:26.373Z,98618.56
2023-02-22T22:53:53.095Z,98617.88
2023-02-22T22:56:29.326Z,98614.28
2023-02-22T22:58:58.219Z,98618.97
2023-02-22T23:01:27.964Z,98614.81
2023-02-22T23:04:02.209Z,98618.41
2023-02-22T23:06:33.215Z,98602.31
2023-02-22T23:09:18.819Z,98614.03
2023-02-22T23:11:53.563Z,98610.97
2023-02-22T23:14:24.286Z,98613.09
2023-02-22T23:17:03.750Z,98610.91
2023-02-22T23:19:35.916Z,98611.75
2023-02-22T23:22:05.671Z,98609.03
2023-02-22T23:24:36.323Z,98614.81
2023-02-22T23:27:07.374Z,98611.47
2023-02-22T23:29:37.806Z,98614.25
2023-02-22T23:32:06.202Z,98607.91
2023-02-22T23:34:34.236Z,98617.25
2023-02-22T23:37:01.083Z,98615.88
2023-02-22T23:39:27.988Z,98620.25
2023-02-22T23:41:56.441Z,98622.47
2023-02-22T23:44:23.130Z,98624.63
2023-02-22T23:46:55.711Z,98620.19
2023-02-22T23:49:25.934Z,98622.13
2023-02-22T23:51:52.911Z,98624.19
2023-02-22T23:54:21.575Z,98622.47
2023-02-22T23:56:58.311Z,98620.34
2023-02-22T23:59:26.622Z,98618.28
